createdAt,value
2022-12-06T00:03:31.343Z,8.97
2022-12-06T00:08:23.050Z,8.47
2022-12-06T00:13:14.909Z,9.07
2022-12-06T00:18:06.615Z,8.43
2022-12-06T00:22:58.396Z,8.83
2022-12-06T00:27:51.543Z,9.20
2022-12-06T00:32:43.227Z,9.50
2022-12-06T00:37:35.057Z,9.57
2022-12-06T00:42:26.760Z,9.40
2022-12-06T00:47:18.426Z,9.10
2022-12-06T00:52:10.129Z,9.03
2022-12-06T00:57:01.862Z,9.00
2022-12-06T01:01:53.544Z,9.47
2022-12-06T01:06:45.265Z,9.17
2022-12-06T01:11:38.120Z,8.87
2022-12-06T01:16:31.951Z,9.93
2022-12-06T01:21:25.545Z,10.00
2022-12-06T01:26:37.548Z,10.10
2022-12-06T01:31:37.323Z,10.33
2022-12-06T01:36:29.812Z,9.77
2022-12-06T01:41:24.932Z,8.73
2022-12-06T01:46:38.950Z,10.20
2022-12-06T01:51:31.257Z,9.47
2022-12-06T01:56:23.450Z,9.10
2022-12-06T02:01:15.713Z,9.13
2022-12-06T02:06:09.287Z,9.23
2022-12-06T02:11:04.019Z,8.80
2022-12-06T02:16:33.218Z,9.70
2022-12-06T02:21:52.769Z,9.67
2022-12-06T02:27:16.983Z,10.20
2022-12-06T02:32:34.467Z,10.47
2022-12-06T02:37:47.498Z,11.57
2022-12-06T02:42:56.485Z,11.47
2022-12-06T02:47:51.139Z,11.40
2022-12-06T02:52:49.144Z,11.63
2022-12-06T02:57:51.496Z,12.30
2022-12-06T03:02:43.502Z,12.30
2022-12-06T03:07:41.378Z,12.83
2022-12-06T03:12:54.301Z,13.13
2022-12-06T03:18:10.284Z,12.73
2022-12-06T03:23:07.145Z,11.00
2022-12-06T03:28:02.697Z,11.43
2022-12-06T03:32:54.594Z,11.63
2022-12-06T03:37:56.248Z,10.50
2022-12-06T03:42:49.492Z,10.47
2022-12-06T03:48:22.541Z,10.93
2022-12-06T03:53:18.607Z,11.00
2022-12-06T03:58:10.345Z,10.33
2022-12-06T04:03:02.009Z,10.63
2022-12-06T04:07:53.773Z,9.73
2022-12-06T04:13:00.888Z,10.47
2022-12-06T04:18:10.615Z,9.20
2022-12-06T04:23:04.842Z,10.13
2022-12-06T04:28:14.871Z,9.80
2022-12-06T04:33:25.215Z,9.07
2022-12-06T04:38:35.789Z,10.17
2022-12-06T04:43:42.572Z,11.03
2022-12-06T04:48:34.239Z,9.73
2022-12-06T04:53:25.903Z,9.80
2022-12-06T04:58:17.689Z,10.83
2022-12-06T05:03:15.170Z,12.00
2022-12-06T05:08:09.206Z,10.30
2022-12-06T05:13:02.239Z,10.00
2022-12-06T05:17:54.773Z,12.80
2022-12-06T05:22:46.806Z,11.87
2022-12-06T05:27:38.975Z,11.97
2022-12-06T05:32:32.544Z,11.70
2022-12-06T05:37:28.724Z,12.17
2022-12-06T05:47:31.115Z,11.80
2022-12-06T05:52:23.266Z,13.17
2022-12-06T05:57:18.891Z,12.23
2022-12-06T06:02:11.220Z,11.03
2022-12-06T06:07:04.099Z,11.43
2022-12-06T06:11:58.505Z,12.43
2022-12-06T06:16:55.942Z,10.27
2022-12-06T06:21:51.341Z,12.07
2022-12-06T06:26:43.361Z,11.57
2022-12-06T06:36:46.140Z,11.60
2022-12-06T07:02:04.216Z,12.70
2022-12-06T07:06:56.960Z,12.87
2022-12-06T07:11:48.965Z,12.83
2022-12-06T07:16:41.659Z,12.37
2022-12-06T07:21:33.892Z,12.40
2022-12-06T07:26:33.813Z,11.13
2022-12-06T07:31:29.628Z,12.70
2022-12-06T07:36:32.104Z,13.50
2022-12-06T07:41:50.104Z,12.97
2022-12-06T07:51:52.541Z,14.03
2022-12-06T07:56:44.635Z,12.67
2022-12-06T08:06:44.081Z,13.03
2022-12-06T08:11:36.987Z,12.63
2022-12-06T08:21:35.685Z,11.70
2022-12-06T08:26:28.645Z,12.40
2022-12-06T08:31:24.642Z,12.70
2022-12-06T08:36:21.781Z,11.73
2022-12-06T08:41:33.480Z,12.97
2022-12-06T08:51:39.553Z,14.07
2022-12-06T08:56:33.087Z,13.40
2022-12-06T09:11:56.466Z,12.97
2022-12-06T09:27:01.380Z,13.43
2022-12-06T09:31:57.863Z,12.57
2022-12-06T09:36:59.737Z,12.57
2022-12-06T09:59:09.596Z,11.63
2022-12-06T10:04:30.981Z,12.83
2022-12-06T10:09:57.783Z,12.63
2022-12-06T10:20:51.245Z,12.90
2022-12-06T10:26:05.338Z,13.00
2022-12-06T10:31:26.372Z,11.87
2022-12-06T10:36:44.417Z,12.37
2022-12-06T10:41:54.219Z,11.97
2022-12-06T10:47:06.833Z,11.37
2022-12-06T10:53:05.501Z,10.60
2022-12-06T10:58:28.567Z,11.87
2022-12-06T11:09:06.817Z,11.97
2022-12-06T11:14:23.849Z,10.40
2022-12-06T11:19:48.047Z,12.00
2022-12-06T11:25:08.658Z,11.70
2022-12-06T12:01:53.093Z,11.57
2022-12-06T12:17:23.200Z,11.23
2022-12-06T12:22:36.720Z,10.20
2022-12-06T12:33:21.331Z,10.13
2022-12-06T12:38:27.361Z,11.07
2022-12-06T12:43:38.132Z,11.07
2022-12-06T12:48:38.160Z,10.07
2022-12-06T12:53:52.708Z,10.20
2022-12-06T13:26:09.078Z,10.17
2022-12-06T13:41:54.876Z,10.60
2022-12-06T13:46:46.900Z,10.27
2022-12-06T14:02:00.510Z,9.80
2022-12-06T14:50:07.327Z,9.60
2022-12-06T14:55:36.204Z,11.47
2022-12-06T15:06:18.234Z,10.20
2022-12-06T15:11:10.501Z,10.63
2022-12-06T17:35:37.079Z,14.00
2022-12-06T17:50:48.423Z,13.20
2022-12-06T19:28:31.386Z,13.63
2022-12-06T19:54:17.834Z,15.97
2022-12-06T20:04:29.462Z,16.00
2022-12-06T20:09:28.104Z,16.03
2022-12-06T20:19:27.142Z,15.67
2022-12-06T20:24:23.196Z,14.93
2022-12-06T20:29:17.815Z,17.00
2022-12-06T20:49:43.474Z,16.00
2022-12-06T20:54:43.984Z,16.77
2022-12-06T21:20:03.808Z,15.00
2022-12-06T21:25:00.013Z,16.43
2022-12-06T21:29:56.004Z,16.27
2022-12-06T21:34:48.229Z,15.43
2022-12-06T21:39:42.225Z,16.40
2022-12-06T21:44:36.104Z,16.10
2022-12-06T21:54:51.520Z,15.37
2022-12-06T21:59:43.604Z,14.70
2022-12-06T22:04:40.650Z,14.97
2022-12-06T22:14:41.388Z,13.63
2022-12-06T22:19:33.771Z,15.90
2022-12-06T22:24:26.696Z,14.03
2022-12-06T22:29:19.623Z,14.63
2022-12-06T22:34:12.896Z,15.57
2022-12-06T22:39:14.866Z,14.63
2022-12-06T22:49:21.372Z,14.90
2022-12-06T22:54:15.305Z,13.90
2022-12-06T23:04:15.489Z,13.43
2022-12-06T23:09:10.203Z,14.37
2022-12-06T23:14:04.352Z,14.23
2022-12-06T23:19:03.043Z,15.07
2022-12-06T23:24:04.100Z,13.83
2022-12-06T23:28:56.873Z,14.27
2022-12-06T23:33:54.534Z,16.27
2022-12-06T23:38:47.733Z,15.93
2022-12-06T23:43:41.465Z,16.33
2022-12-06T23:48:34.407Z,16.13
2022-12-06T23:53:27.823Z,16.97
2022-12-06T23:58:23.667Z,16.63
